Time;durP1;ratioP1;P1;durP2;ratioP2;P2;SDS_P1;SDS_P2;PMS_P1;PMS_P2;Temp;Humidity;BMP_temperature;BMP_pressure;BME280_temperature;BME280_humidity;BME280_pressure;Samples;Min_cycle;Max_cycle;Signal;HPM_P1;HPM_P2
2022/08/15 00:01:43;;;;;;;12.20;8.20;;;23.10;28.30;;;;;;5052616;28;20858;-72
2022/08/15 00:04:09;;;;;;;10.40;8.20;;;23.20;27.80;;;;;;5052630;28;20801;-72
2022/08/15 00:06:40;;;;;;;10.40;8.50;;;23.20;27.40;;;;;;5052710;28;20373;-72
2022/08/15 00:09:11;;;;;;;11.57;8.80;;;23.20;27.60;;;;;;5052881;28;20394;-73
2022/08/15 00:11:40;;;;;;;12.95;8.45;;;23.10;28.00;;;;;;5054164;28;20382;-73
2022/08/15 00:14:29;;;;;;;11.75;8.60;;;23.10;27.70;;;;;;5054680;28;20802;-72
2022/08/15 00:16:55;;;;;;;11.75;7.57;;;23.10;27.40;;;;;;5054735;28;20993;-72
2022/08/15 00:19:29;;;;;;;10.60;7.43;;;23.20;27.50;;;;;;5053261;28;20388;-73
2022/08/15 00:21:59;;;;;;;9.43;8.43;;;23.10;27.40;;;;;;5052534;28;20468;-74
2022/08/15 00:24:28;;;;;;;11.65;8.20;;;23.10;27.30;;;;;;5052294;28;20385;-73
2022/08/15 00:26:56;;;;;;;12.10;8.48;;;23.10;27.30;;;;;;5052268;28;20410;-73
2022/08/15 00:29:24;;;;;;;11.45;7.90;;;23.10;27.20;;;;;;5052197;28;20389;-72
2022/08/15 00:31:53;;;;;;;11.20;8.52;;;23.00;27.30;;;;;;5051979;28;20380;-72
2022/08/15 00:34:19;;;;;;;10.98;8.00;;;23.00;27.70;;;;;;5051931;28;20381;-72
2022/08/15 00:36:48;;;;;;;10.93;8.52;;;23.00;27.30;;;;;;5051929;28;20492;-72
2022/08/15 00:39:15;;;;;;;10.07;8.23;;;23.00;27.40;;;;;;5051989;28;20893;-72
2022/08/15 00:41:42;;;;;;;10.95;8.85;;;23.00;27.40;;;;;;5051633;28;20386;-73
2022/08/15 00:44:40;;;;;;;13.25;8.60;;;23.00;27.60;;;;;;5051999;28;20382;-73
2022/08/15 00:47:11;;;;;;;10.82;8.63;;;22.90;28.00;;;;;;5043883;28;20398;-72
2022/08/15 00:49:38;;;;;;;11.52;8.60;;;22.90;28.30;;;;;;5052048;28;20388;-72
2022/08/15 00:52:03;;;;;;;12.90;8.70;;;22.80;28.60;;;;;;5051797;28;20436;-73
2022/08/15 00:54:38;;;;;;;12.85;8.50;;;22.80;29.10;;;;;;5051890;28;20992;-74
2022/08/15 00:57:20;;;;;;;10.98;8.93;;;22.70;29.50;;;;;;5051794;28;20458;-73
2022/08/15 00:59:51;;;;;;;10.48;8.45;;;22.70;29.50;;;;;;5051691;28;20424;-73
2022/08/15 01:02:21;;;;;;;9.97;8.80;;;22.70;29.70;;;;;;5051238;28;20385;-72
2022/08/15 01:04:47;;;;;;;9.03;7.83;;;22.70;29.70;;;;;;5051671;28;20416;-72
2022/08/15 01:07:14;;;;;;;9.63;8.20;;;22.60;30.00;;;;;;5050644;28;20385;-72
2022/08/15 01:09:41;;;;;;;12.77;8.57;;;22.60;30.40;;;;;;5051603;28;20472;-70
2022/08/15 01:12:14;;;;;;;10.25;9.02;;;22.50;30.90;;;;;;5051177;28;20390;-72
2022/08/15 01:14:45;;;;;;;9.65;8.65;;;22.40;31.20;;;;;;5051092;28;20535;-72
2022/08/15 01:17:12;;;;;;;9.18;8.18;;;22.40;31.30;;;;;;5051174;28;20898;-72
2022/08/15 01:19:59;;;;;;;9.63;8.52;;;22.30;31.60;;;;;;5051395;28;20377;-73
2022/08/15 01:22:52;;;;;;;9.93;8.93;;;22.30;31.40;;;;;;5050881;28;20687;-72
2022/08/15 01:25:23;;;;;;;10.90;8.38;;;22.30;31.10;;;;;;5050942;28;20378;-73
2022/08/15 01:27:53;;;;;;;10.73;8.57;;;22.30;30.60;;;;;;5051265;28;20384;-73
2022/08/15 01:30:23;;;;;;;9.45;8.40;;;22.30;30.20;;;;;;5051022;28;20948;-72
2022/08/15 01:32:48;;;;;;;10.70;7.80;;;22.20;30.20;;;;;;5050723;28;20393;-72
2022/08/15 01:35:14;;;;;;;11.60;7.63;;;22.20;29.70;;;;;;5051146;28;20397;-72
2022/08/15 01:37:41;;;;;;;10.15;7.60;;;22.20;29.60;;;;;;5050873;28;20488;-73
2022/08/15 01:40:50;;;;;;;9.00;7.80;;;22.20;28.20;;;;;;5051136;28;20451;-72
2022/08/15 01:43:20;;;;;;;11.23;7.57;;;22.20;28.00;;;;;;5050729;28;20431;-73
2022/08/15 01:45:46;;;;;;;10.30;8.00;;;22.30;27.50;;;;;;5050839;28;20485;-72
2022/08/15 01:48:20;;;;;;;8.93;6.80;;;22.30;27.00;;;;;;5050748;28;20389;-73
2022/08/15 01:50:53;;;;;;;8.70;7.10;;;22.40;25.10;;;;;;5050557;28;20397;-73
2022/08/15 01:53:25;;;;;;;12.85;7.57;;;22.40;25.60;;;;;;5051196;28;20941;-73
2022/08/15 01:55:59;;;;;;;10.20;6.60;;;22.40;25.60;;;;;;5050849;28;20405;-71
2022/08/15 01:58:25;;;;;;;9.90;7.50;;;22.40;25.40;;;;;;5050895;28;21030;-72
2022/08/15 02:00:53;;;;;;;8.45;7.13;;;22.30;25.20;;;;;;5050493;28;20384;-73
2022/08/15 02:03:19;;;;;;;8.80;6.65;;;22.40;25.10;;;;;;5050647;28;20412;-73
2022/08/15 02:05:44;;;;;;;10.02;7.00;;;22.30;25.30;;;;;;5050770;28;20377;-72
2022/08/15 02:08:10;;;;;;;10.25;6.57;;;22.30;24.90;;;;;;5050692;28;20443;-72
2022/08/15 02:10:36;;;;;;;7.97;6.40;;;22.40;25.20;;;;;;5050644;28;20385;-72
2022/08/15 02:13:02;;;;;;;9.20;6.63;;;22.30;25.90;;;;;;5063738;22;20461;-76
2022/08/15 02:15:27;;;;;;;9.00;6.57;;;22.20;25.20;;;;;;5051126;28;20390;-75
2022/08/15 02:17:53;;;;;;;11.20;6.90;;;22.20;25.10;;;;;;5051815;28;20493;-77
2022/08/15 02:20:19;;;;;;;11.43;6.05;;;22.20;25.30;;;;;;5055100;28;20829;-76
2022/08/15 02:22:44;;;;;;;8.70;6.20;;;22.20;25.10;;;;;;5054987;28;20408;-77
2022/08/15 02:25:11;;;;;;;9.47;6.10;;;22.20;24.80;;;;;;5055434;28;20385;-76
2022/08/15 02:27:38;;;;;;;10.18;6.00;;;22.10;25.00;;;;;;5055107;28;20443;-77
2022/08/15 02:30:14;;;;;;;6.93;5.70;;;22.10;25.10;;;;;;5055099;28;20401;-76
2022/08/15 02:32:40;;;;;;;11.57;5.70;;;22.10;25.00;;;;;;5053054;28;20407;-76
2022/08/15 02:35:08;;;;;;;8.95;5.95;;;22.10;24.50;;;;;;5054625;28;20389;-76
2022/08/15 02:37:34;;;;;;;13.60;5.90;;;22.10;24.40;;;;;;5054677;28;20397;-76
2022/08/15 02:40:00;;;;;;;8.27;6.07;;;22.10;24.30;;;;;;5054738;28;20377;-76
2022/08/15 02:42:26;;;;;;;8.23;6.00;;;22.00;24.30;;;;;;5054753;28;20870;-77
2022/08/15 02:44:52;;;;;;;8.50;5.40;;;22.00;24.60;;;;;;5054504;28;20402;-76
2022/08/15 02:47:19;;;;;;;11.98;5.60;;;21.90;24.80;;;;;;5053521;28;20401;-76
2022/08/15 02:49:47;;;;;;;9.20;5.95;;;21.90;25.20;;;;;;5054945;28;20739;-76
2022/08/15 02:52:13;;;;;;;7.40;5.05;;;21.80;25.50;;;;;;5054656;28;20420;-77
2022/08/15 02:54:39;;;;;;;9.65;5.50;;;21.80;25.60;;;;;;5054911;28;20850;-77
2022/08/15 02:57:06;;;;;;;8.70;5.10;;;21.90;25.10;;;;;;5054415;28;20389;-77
2022/08/15 02:59:32;;;;;;;8.30;5.40;;;21.90;24.90;;;;;;5054619;28;20421;-77
2022/08/15 03:01:58;;;;;;;14.40;5.53;;;21.90;25.20;;;;;;5054276;28;20424;-78
2022/08/15 03:04:25;;;;;;;11.48;5.43;;;22.30;24.30;;;;;;5053533;28;20421;-78
2022/08/15 03:06:53;;;;;;;11.27;4.90;;;22.20;23.90;;;;;;5054370;28;20412;-76
2022/08/15 03:09:21;;;;;;;10.73;5.28;;;22.20;23.90;;;;;;5054442;28;20416;-77
2022/08/15 03:11:46;;;;;;;7.90;4.70;;;22.10;24.40;;;;;;5053947;28;20377;-76
2022/08/15 03:14:16;;;;;;;10.40;5.30;;;22.20;24.60;;;;;;5054111;28;20483;-77
2022/08/15 03:16:43;;;;;;;10.33;4.63;;;22.20;23.70;;;;;;5054431;28;20389;-77
2022/08/15 03:19:19;;;;;;;9.13;4.82;;;22.30;23.70;;;;;;5053663;28;20385;-78
2022/08/15 03:21:45;;;;;;;8.57;4.50;;;22.30;24.10;;;;;;5053943;28;20382;-78
2022/08/15 03:24:12;;;;;;;6.97;4.50;;;22.20;23.80;;;;;;5053568;28;20389;-77
2022/08/15 03:26:38;;;;;;;5.93;4.63;;;22.30;23.80;;;;;;5053647;28;20430;-77
2022/08/15 03:29:06;;;;;;;5.97;4.43;;;22.30;23.70;;;;;;5052593;28;20385;-77
2022/08/15 03:31:34;;;;;;;5.82;4.40;;;22.20;24.00;;;;;;5053450;28;20754;-77
2022/08/15 03:34:00;;;;;;;9.98;4.57;;;22.20;24.70;;;;;;5054018;28;20381;-78
2022/08/15 03:36:26;;;;;;;9.25;4.00;;;22.10;24.20;;;;;;5054407;28;20385;-78
2022/08/15 03:38:52;;;;;;;6.20;4.27;;;22.10;24.80;;;;;;5054342;28;20381;-78
2022/08/15 03:41:18;;;;;;;8.48;4.50;;;22.00;25.10;;;;;;5053919;28;20443;-78
2022/08/15 03:43:46;;;;;;;8.38;4.43;;;22.00;25.30;;;;;;5054471;28;20433;-77
2022/08/15 03:46:16;;;;;;;6.82;4.68;;;22.00;25.30;;;;;;5054251;28;20746;-78
2022/08/15 03:48:46;;;;;;;10.30;4.93;;;21.90;25.50;;;;;;5053864;28;20425;-77
2022/08/15 03:51:11;;;;;;;7.00;4.50;;;22.00;25.30;;;;;;5053230;28;20401;-77
2022/08/15 03:53:44;;;;;;;9.18;4.97;;;21.90;25.70;;;;;;5053706;28;20377;-77
2022/08/15 03:56:13;;;;;;;6.25;4.50;;;21.90;25.50;;;;;;5053442;28;20385;-78
2022/08/15 03:58:39;;;;;;;10.65;4.88;;;22.00;25.40;;;;;;5053690;28;20433;-77
2022/08/15 04:01:07;;;;;;;7.37;4.40;;;22.20;25.30;;;;;;5053463;28;20393;-78
2022/08/15 04:03:34;;;;;;;12.90;4.50;;;22.20;25.20;;;;;;5053624;28;20420;-78
2022/08/15 04:06:06;;;;;;;9.57;4.47;;;22.30;24.30;;;;;;5053660;28;20975;-77
2022/08/15 04:08:32;;;;;;;10.97;4.20;;;22.40;23.80;;;;;;5053579;28;20460;-78
2022/08/15 04:11:01;;;;;;;7.18;4.30;;;22.50;23.40;;;;;;5053439;28;20389;-78
2022/08/15 04:13:27;;;;;;;8.33;4.13;;;22.50;23.40;;;;;;5054302;28;20459;-79
2022/08/15 04:15:58;;;;;;;8.67;4.50;;;22.50;23.40;;;;;;5053688;28;20885;-78
2022/08/15 04:18:24;;;;;;;8.40;4.20;;;22.60;23.30;;;;;;5053735;28;20401;-78
2022/08/15 04:20:53;;;;;;;8.77;4.15;;;22.80;22.60;;;;;;5054125;28;20488;-79
2022/08/15 04:23:18;;;;;;;6.43;4.10;;;22.90;22.60;;;;;;5051973;28;20385;-79
2022/08/15 04:25:44;;;;;;;9.55;4.68;;;22.90;22.20;;;;;;5053313;28;20382;-78
2022/08/15 04:28:14;;;;;;;7.97;3.90;;;22.90;22.10;;;;;;5058021;28;20806;-79
2022/08/15 04:30:42;;;;;;;7.82;4.72;;;22.90;21.90;;;;;;5058332;28;20382;-78
2022/08/15 04:33:21;;;;;;;5.80;4.00;;;23.00;21.60;;;;;;5055242;28;20909;-79
2022/08/15 04:35:55;;;;;;;6.13;4.03;;;23.00;21.40;;;;;;5055086;28;20387;-79
2022/08/15 04:38:21;;;;;;;6.00;3.90;;;23.20;21.00;;;;;;5053369;28;20400;-79
2022/08/15 04:40:48;;;;;;;8.90;4.50;;;23.20;20.90;;;;;;5055911;28;20385;-79
2022/08/15 04:43:15;;;;;;;8.45;4.45;;;23.20;20.80;;;;;;5054753;28;20392;-79
2022/08/15 04:45:42;;;;;;;9.75;4.30;;;23.20;20.80;;;;;;5054074;28;20373;-78
2022/08/15 04:48:10;;;;;;;7.53;4.40;;;23.30;20.80;;;;;;5053937;28;20385;-79
2022/08/15 04:50:38;;;;;;;6.60;3.92;;;23.30;20.80;;;;;;5054938;28;20431;-78
2022/08/15 04:53:05;;;;;;;7.85;4.40;;;23.20;20.90;;;;;;5054622;28;20393;-79
2022/08/15 04:55:31;;;;;;;8.02;4.00;;;23.30;20.80;;;;;;5057231;28;20889;-78
2022/08/15 04:57:58;;;;;;;6.60;4.00;;;23.40;20.30;;;;;;5059100;28;20393;-78
2022/08/15 05:00:27;;;;;;;12.65;4.43;;;23.40;20.30;;;;;;5056849;28;20416;-78
2022/08/15 05:03:09;;;;;;;9.30;4.57;;;23.50;20.40;;;;;;5060587;28;20389;-78
2022/08/15 05:05:40;;;;;;;10.80;4.03;;;23.40;20.50;;;;;;5062205;28;20389;-78
2022/08/15 05:08:06;;;;;;;8.27;3.95;;;23.40;20.40;;;;;;5061601;28;20396;-77
2022/08/15 05:10:32;;;;;;;11.55;4.05;;;23.40;20.50;;;;;;5062829;28;20393;-78
2022/08/15 05:13:11;;;;;;;8.25;4.07;;;23.40;20.40;;;;;;5064179;28;20408;-78
2022/08/15 05:15:36;;;;;;;8.90;4.03;;;23.30;20.80;;;;;;5066394;28;20397;-78
2022/08/15 05:18:02;;;;;;;6.18;3.90;;;23.30;21.00;;;;;;5065294;28;20398;-79
2022/08/15 05:20:28;;;;;;;6.30;3.70;;;23.30;20.70;;;;;;5065319;28;20912;-78
2022/08/15 05:22:56;;;;;;;5.60;3.85;;;23.30;20.90;;;;;;5059984;28;20435;-78
2022/08/15 05:25:22;;;;;;;10.35;3.85;;;23.30;21.00;;;;;;5057440;28;20404;-78
2022/08/15 05:27:48;;;;;;;7.75;4.50;;;23.40;20.60;;;;;;5055607;28;20452;-78
2022/08/15 05:30:14;;;;;;;7.10;4.20;;;23.40;20.80;;;;;;5052434;28;20389;-78
2022/08/15 05:32:40;;;;;;;9.85;4.10;;;23.40;20.80;;;;;;5052620;28;20411;-77
2022/08/15 05:35:06;;;;;;;8.30;4.00;;;23.40;20.60;;;;;;5051460;28;20546;-77
2022/08/15 05:37:32;;;;;;;8.48;3.90;;;23.50;20.80;;;;;;5052426;28;20813;-79
2022/08/15 05:39:58;;;;;;;10.25;4.25;;;23.50;20.60;;;;;;5052561;28;20494;-78
2022/08/15 05:42:50;;;;;;;9.75;4.47;;;23.50;20.70;;;;;;5051716;28;20727;-78
2022/08/15 05:45:35;;;;;;;10.27;4.20;;;23.50;20.80;;;;;;5053423;28;20377;-78
2022/08/15 05:48:21;;;;;;;15.23;4.70;;;23.70;20.40;;;;;;5052620;28;20419;-78
2022/08/15 05:50:50;;;;;;;10.77;4.50;;;23.70;20.60;;;;;;5052483;28;20504;-79
2022/08/15 05:53:38;;;;;;;13.68;5.07;;;23.60;20.70;;;;;;5051034;28;20385;-78
2022/08/15 05:56:38;;;;;;;15.25;5.32;;;23.70;20.50;;;;;;5052887;28;20484;-79
2022/08/15 05:59:09;;;;;;;7.90;4.50;;;23.80;20.50;;;;;;5029711;28;20417;-79
2022/08/15 06:01:44;;;;;;;10.23;4.30;;;23.90;20.20;;;;;;5066955;28;20374;-79
2022/08/15 06:04:34;;;;;;;12.23;4.80;;;23.90;20.30;;;;;;5065241;28;20742;-79
2022/08/15 06:07:05;;;;;;;9.98;4.50;;;23.90;20.30;;;;;;5065163;28;20385;-78
2022/08/15 06:09:34;;;;;;;16.33;4.87;;;23.90;20.20;;;;;;5056150;28;20374;-79
2022/08/15 06:12:06;;;;;;;12.80;4.30;;;23.90;20.30;;;;;;5052721;28;20396;-79
2022/08/15 06:14:38;;;;;;;10.75;3.85;;;24.00;20.00;;;;;;5052805;28;20455;-78
2022/08/15 06:17:19;;;;;;;8.00;4.18;;;24.10;19.90;;;;;;5052606;28;20401;-78
2022/08/15 06:19:48;;;;;;;10.00;4.07;;;24.10;20.00;;;;;;5051657;28;20416;-78
2022/08/15 06:22:32;;;;;;;10.40;4.32;;;24.10;20.00;;;;;;5049731;28;20421;-78
2022/08/15 06:25:26;;;;;;;9.43;3.83;;;24.20;19.90;;;;;;5054040;28;20390;-78
2022/08/15 06:28:21;;;;;;;8.93;4.00;;;24.20;20.00;;;;;;4998527;28;20926;-76
2022/08/15 06:31:03;;;;;;;14.85;4.50;;;24.30;19.90;;;;;;5039048;28;20398;-79
2022/08/15 06:33:57;;;;;;;8.95;3.80;;;24.50;19.70;;;;;;5051071;28;20495;-78
2022/08/15 06:36:54;;;;;;;9.63;4.10;;;24.50;19.80;;;;;;5041513;28;20428;-76
2022/08/15 06:39:43;;;;;;;8.03;3.70;;;24.60;19.80;;;;;;5051150;28;20393;-78
2022/08/15 06:42:36;;;;;;;9.20;4.00;;;24.70;19.60;;;;;;5050092;28;20460;-79
2022/08/15 06:45:20;;;;;;;7.88;3.83;;;24.80;19.50;;;;;;5049751;28;20846;-78
2022/08/15 06:47:48;;;;;;;10.93;4.00;;;24.80;19.90;;;;;;5051857;28;20384;-78
2022/08/15 06:50:37;;;;;;;9.98;4.35;;;24.90;19.70;;;;;;5051417;28;20382;-78
2022/08/15 06:53:25;;;;;;;11.85;4.15;;;24.90;19.60;;;;;;5051288;28;20386;-77
2022/08/15 06:55:57;;;;;;;10.45;4.00;;;24.90;19.70;;;;;;5050200;28;20400;-77
2022/08/15 06:58:54;;;;;;;6.57;3.92;;;24.80;19.90;;;;;;5049745;28;20479;-77
2022/08/15 07:02:00;;;;;;;5.40;3.80;;;24.60;20.30;;;;;;5049414;28;20754;-77
2022/08/15 07:04:52;;;;;;;8.55;4.10;;;24.60;20.30;;;;;;5041743;28;20872;-78
2022/08/15 07:07:42;;;;;;;10.83;4.70;;;24.60;20.60;;;;;;5036585;28;20508;-77
2022/08/15 07:10:19;;;;;;;7.75;4.30;;;24.50;21.00;;;;;;5038848;28;20497;-76
2022/08/15 07:12:56;;;;;;;8.17;4.10;;;24.60;20.50;;;;;;5037932;28;20428;-78
2022/08/15 07:15:36;;;;;;;9.40;3.83;;;24.80;20.30;;;;;;5050300;28;21286;-78
2022/08/15 07:18:08;;;;;;;9.55;4.20;;;24.80;20.30;;;;;;5053556;28;20520;-77
2022/08/15 07:20:35;;;;;;;9.13;4.63;;;24.90;20.00;;;;;;5051550;28;20402;-76
2022/08/15 07:23:19;;;;;;;9.70;4.20;;;25.10;19.40;;;;;;5045697;28;20485;-77
2022/08/15 07:25:47;;;;;;;6.13;4.00;;;25.30;19.20;;;;;;5051424;28;20420;-77
2022/08/15 07:28:17;;;;;;;15.82;4.80;;;25.30;19.10;;;;;;5062351;28;20405;-77
2022/08/15 07:30:48;;;;;;;10.80;4.63;;;25.50;18.80;;;;;;5049623;28;20414;-77
2022/08/15 07:33:36;;;;;;;8.15;4.40;;;25.50;18.70;;;;;;5063834;28;20394;-77
2022/08/15 07:36:24;;;;;;;7.95;4.25;;;25.70;18.30;;;;;;5033139;28;20387;-77
2022/08/15 07:38:51;;;;;;;8.13;4.57;;;25.70;18.20;;;;;;5037726;28;20899;-78
2022/08/15 07:41:32;;;;;;;9.70;4.70;;;25.60;18.40;;;;;;5055449;28;20388;-77
2022/08/15 07:44:19;;;;;;;7.03;4.47;;;25.50;18.90;;;;;;5072343;28;20388;-77
2022/08/15 07:47:09;;;;;;;7.25;4.10;;;25.40;19.40;;;;;;5052807;28;20581;-77
2022/08/15 07:49:37;;;;;;;6.63;4.47;;;25.50;19.30;;;;;;5052036;28;20420;-77
2022/08/15 07:52:20;;;;;;;8.13;4.70;;;25.50;19.50;;;;;;5052033;28;20726;-77
2022/08/15 07:54:49;;;;;;;12.18;4.80;;;25.50;19.30;;;;;;5043095;28;20786;-78
2022/08/15 07:57:19;;;;;;;9.70;4.53;;;25.70;19.20;;;;;;5067258;28;20423;-77
2022/08/15 08:00:08;;;;;;;7.57;4.40;;;25.60;19.40;;;;;;5052388;28;20870;-77
2022/08/15 08:02:57;;;;;;;11.85;4.60;;;25.80;19.20;;;;;;5052818;28;20390;-78
2022/08/15 08:05:27;;;;;;;9.60;4.70;;;25.80;19.10;;;;;;5053068;28;20436;-77
2022/08/15 08:07:54;;;;;;;9.82;4.90;;;26.00;19.50;;;;;;5055628;28;20947;-77
2022/08/15 08:10:46;;;;;;;9.55;4.60;;;26.20;18.90;;;;;;5051690;28;20407;-77
2022/08/15 08:13:18;;;;;;;6.07;4.30;;;26.50;18.30;;;;;;5089496;22;20426;31
2022/08/15 08:16:06;;;;;;;10.95;5.00;;;26.70;18.10;;;;;;5028630;28;20394;-74
2022/08/15 08:18:43;;;;;;;7.03;4.30;;;26.60;17.90;;;;;;5030238;28;20403;-74
2022/08/15 08:21:13;;;;;;;13.10;5.03;;;26.60;18.00;;;;;;5029956;28;20477;-72
2022/08/15 08:23:50;;;;;;;8.75;4.60;;;26.60;18.30;;;;;;5034409;28;20385;-73
2022/08/15 08:26:38;;;;;;;14.05;4.88;;;26.70;18.00;;;;;;5050133;28;20486;-72
2022/08/15 08:29:15;;;;;;;10.55;4.55;;;26.60;18.20;;;;;;5046302;28;20404;-73
2022/08/15 08:32:00;;;;;;;9.50;4.88;;;26.80;18.10;;;;;;5033593;28;20772;-72
2022/08/15 08:34:39;;;;;;;7.72;4.90;;;26.80;17.80;;;;;;5050214;28;20365;-71
2022/08/15 08:37:22;;;;;;;13.50;4.60;;;26.90;17.80;;;;;;5022789;28;20832;-72
2022/08/15 08:43:08;;;;;;;13.80;4.60;;;26.90;17.80;;;;;;5051987;28;21044;-72
2022/08/15 08:45:46;;;;;;;9.55;4.45;;;26.90;17.90;;;;;;5041960;28;20950;-71
2022/08/15 08:48:15;;;;;;;12.57;4.93;;;26.90;18.20;;;;;;5040766;28;20398;-73
2022/08/15 08:50:48;;;;;;;11.35;4.28;;;27.10;18.00;;;;;;5049750;28;20401;-71
2022/08/15 08:53:19;;;;;;;10.82;4.57;;;27.10;17.90;;;;;;5051074;28;20389;-71
2022/08/15 08:56:06;;;;;;;10.55;4.60;;;27.30;17.60;;;;;;5040397;28;20401;-72
2022/08/15 08:58:36;;;;;;;10.30;4.70;;;27.40;17.30;;;;;;5031271;28;20489;-73
2022/08/15 09:01:07;;;;;;;9.00;4.80;;;27.30;17.40;;;;;;5031155;28;20715;-73
2022/08/15 09:03:39;;;;;;;10.48;4.60;;;27.20;17.60;;;;;;5031416;28;20417;-72
2022/08/15 09:06:09;;;;;;;10.23;4.40;;;27.20;17.70;;;;;;5031323;28;20397;-73
2022/08/15 09:08:39;;;;;;;9.93;4.82;;;27.30;18.10;;;;;;5031718;28;20856;-72
2022/08/15 09:11:16;;;;;;;9.20;4.80;;;27.30;17.50;;;;;;5031914;28;20477;-73
2022/08/15 09:13:43;;;;;;;14.30;4.60;;;27.40;17.60;;;;;;5031515;28;20457;-71
2022/08/15 09:16:30;;;;;;;9.75;4.80;;;27.30;17.50;;;;;;5031561;28;20440;-71
2022/08/15 09:19:06;;;;;;;12.00;5.00;;;27.40;17.60;;;;;;5031272;28;20810;-71
2022/08/15 09:21:33;;;;;;;13.65;4.60;;;27.60;17.20;;;;;;5031045;28;20848;-71
2022/08/15 09:23:59;;;;;;;13.32;5.47;;;27.60;17.40;;;;;;5013552;28;20387;-71
2022/08/15 09:26:44;;;;;;;9.45;5.57;;;27.60;17.10;;;;;;5031089;28;20411;-73
2022/08/15 09:29:24;;;;;;;12.32;4.68;;;27.60;17.10;;;;;;5030450;28;20791;-73
2022/08/15 09:32:25;;;;;;;12.70;4.97;;;27.60;17.10;;;;;;5030808;28;20461;-71
2022/08/15 09:35:02;;;;;;;12.70;4.80;;;27.20;17.80;;;;;;5031384;28;20383;-72
2022/08/15 09:38:08;;;;;;;11.75;4.60;;;26.90;18.50;;;;;;5031085;28;20405;-72
2022/08/15 09:41:09;;;;;;;8.15;5.18;;;26.60;19.20;;;;;;5031034;28;20383;-71
2022/08/15 09:44:02;;;;;;;13.18;4.80;;;26.50;19.50;;;;;;5030954;28;20375;-71
2022/08/15 09:46:50;;;;;;;11.35;5.45;;;26.50;19.70;;;;;;5031185;28;20618;-71
2022/08/15 09:49:25;;;;;;;11.27;5.38;;;26.40;19.90;;;;;;5031245;28;20413;-72
2022/08/15 09:52:09;;;;;;;14.10;5.57;;;26.40;20.00;;;;;;5031045;28;20880;-70
2022/08/15 09:54:49;;;;;;;10.40;5.20;;;26.60;20.00;;;;;;5030971;28;20391;-72
2022/08/15 09:57:21;;;;;;;15.95;5.47;;;26.90;19.40;;;;;;5031107;28;20775;-70
2022/08/15 10:00:00;;;;;;;10.23;4.97;;;27.00;19.10;;;;;;5031879;28;20840;-71
2022/08/15 10:02:31;;;;;;;13.13;5.35;;;27.10;19.10;;;;;;5030877;28;20781;-72
2022/08/15 10:04:57;;;;;;;9.88;5.55;;;27.10;19.20;;;;;;5030953;28;20458;-71
2022/08/15 10:07:42;;;;;;;13.80;5.10;;;27.00;19.30;;;;;;5030435;28;20767;-71
2022/08/15 10:10:17;;;;;;;11.00;6.27;;;27.10;19.50;;;;;;5030669;28;20479;-73
2022/08/15 10:13:07;;;;;;;10.18;5.80;;;27.20;19.00;;;;;;5030769;28;20421;-73
2022/08/15 10:15:43;;;;;;;10.05;5.60;;;27.30;18.70;;;;;;5030736;28;20394;-71
2022/08/15 10:18:37;;;;;;;7.90;5.00;;;27.40;18.50;;;;;;5046055;28;20440;-71
2022/08/15 10:21:39;;;;;;;10.00;4.82;;;27.50;18.60;;;;;;5011580;28;20394;-71
2022/08/15 10:24:21;;;;;;;10.43;5.68;;;27.90;17.60;;;;;;5017634;28;20423;-73
2022/08/15 10:27:09;;;;;;;15.23;5.70;;;27.90;17.50;;;;;;5030949;28;20394;-70
2022/08/15 10:29:37;;;;;;;12.25;5.53;;;28.10;17.50;;;;;;5030633;28;20387;-73
2022/08/15 10:32:04;;;;;;;13.80;5.60;;;27.80;17.80;;;;;;5030539;28;20770;-72
2022/08/15 10:35:02;;;;;;;14.40;5.65;;;27.80;18.00;;;;;;5030652;28;20395;-70
2022/08/15 10:37:53;;;;;;;6.95;5.03;;;27.50;18.50;;;;;;5030188;28;20403;-72
2022/08/15 10:40:34;;;;;;;12.93;5.75;;;27.20;19.20;;;;;;5033496;28;20383;-73
2022/08/15 10:43:24;;;;;;;15.50;6.25;;;27.10;19.70;;;;;;5034659;28;20382;-72
2022/08/15 10:46:00;;;;;;;15.82;6.07;;;26.90;19.70;;;;;;5034333;28;20398;-71
2022/08/15 10:48:49;;;;;;;14.82;6.80;;;26.80;20.00;;;;;;5034211;28;20480;-72
2022/08/15 10:51:49;;;;;;;14.57;5.67;;;26.80;20.40;;;;;;5034249;28;20413;-74
2022/08/15 10:54:52;;;;;;;11.68;6.55;;;26.70;20.60;;;;;;5034512;28;20387;-74
2022/08/15 10:57:21;;;;;;;9.48;5.85;;;26.70;20.50;;;;;;5034257;28;20446;-73
2022/08/15 10:59:52;;;;;;;11.97;6.50;;;26.70;20.50;;;;;;5034085;28;20379;-74
2022/08/15 11:02:23;;;;;;;12.70;6.17;;;26.50;21.20;;;;;;5034092;28;20379;-73
2022/08/15 11:04:49;;;;;;;16.50;6.30;;;26.40;21.90;;;;;;5034805;28;20383;-73
2022/08/15 11:07:29;;;;;;;12.87;6.87;;;26.30;22.50;;;;;;5034408;28;20383;-70
2022/08/15 11:09:58;;;;;;;12.90;5.88;;;26.30;22.70;;;;;;5033851;28;20390;-71
2022/08/15 11:12:27;;;;;;;11.23;6.13;;;26.50;22.30;;;;;;5016017;28;20387;-71
2022/08/15 11:14:59;;;;;;;11.05;6.28;;;26.50;21.90;;;;;;5033489;28;20391;-72
2022/08/15 11:17:29;;;;;;;9.80;6.45;;;26.50;22.20;;;;;;5033716;28;20411;-72
2022/08/15 11:20:12;;;;;;;11.63;6.28;;;26.60;22.00;;;;;;5033691;28;20848;-73
2022/08/15 11:22:49;;;;;;;10.17;6.00;;;26.60;22.10;;;;;;5033512;28;20828;-73
2022/08/15 11:25:19;;;;;;;12.98;6.40;;;26.60;22.60;;;;;;5033633;28;20440;-73
2022/08/15 11:28:01;;;;;;;10.07;6.45;;;26.60;21.70;;;;;;5033486;28;20401;-73
2022/08/15 11:30:28;;;;;;;12.57;5.60;;;27.00;21.40;;;;;;5033497;28;20419;-72
2022/08/15 11:32:53;;;;;;;15.27;6.55;;;27.30;20.50;;;;;;5033542;28;20394;-73
2022/08/15 11:35:27;;;;;;;13.40;6.07;;;27.40;20.00;;;;;;5034684;28;20383;-73
2022/08/15 11:37:55;;;;;;;14.07;6.30;;;27.40;20.00;;;;;;5033657;28;20410;-73
2022/08/15 11:40:21;;;;;;;14.77;6.32;;;27.50;19.80;;;;;;5033638;28;20386;-73
2022/08/15 11:42:50;;;;;;;11.67;6.43;;;27.50;19.40;;;;;;5033170;28;20391;-72
2022/08/15 11:45:18;;;;;;;12.73;6.20;;;27.50;19.50;;;;;;5033379;28;20410;-72
2022/08/15 11:47:52;;;;;;;13.52;6.38;;;27.20;20.00;;;;;;5033128;28;20945;-72
2022/08/15 11:50:54;;;;;;;12.95;6.80;;;26.90;20.20;;;;;;5032937;28;20439;-71
2022/08/15 11:53:20;;;;;;;11.68;6.10;;;26.80;21.00;;;;;;5032981;28;20425;-72
2022/08/15 11:55:46;;;;;;;8.83;6.13;;;26.70;21.20;;;;;;5033538;28;20427;-74
2022/08/15 11:58:12;;;;;;;10.38;6.00;;;26.60;21.80;;;;;;5033128;28;20490;-73
2022/08/15 12:00:45;;;;;;;13.20;6.50;;;26.50;21.80;;;;;;5033228;28;20425;-73
2022/08/15 12:03:33;;;;;;;10.88;6.20;;;26.30;22.70;;;;;;5032513;28;20739;-73
2022/08/15 12:06:21;;;;;;;19.05;6.75;;;26.10;23.60;;;;;;5033035;28;20415;-74
2022/08/15 12:08:48;;;;;;;12.52;6.22;;;26.00;24.20;;;;;;5032835;28;20387;-72
2022/08/15 12:11:14;;;;;;;13.80;6.63;;;26.00;24.10;;;;;;5032279;28;20728;-73
2022/08/15 12:14:02;;;;;;;15.43;6.77;;;25.90;25.00;;;;;;5032684;28;20450;-75
2022/08/15 12:16:33;;;;;;;11.60;6.45;;;25.90;24.60;;;;;;5031365;28;20383;-73
2022/08/15 12:19:28;;;;;;;17.40;6.50;;;25.90;24.80;;;;;;5032480;28;20446;-71
2022/08/15 12:22:00;;;;;;;13.38;6.35;;;25.90;25.90;;;;;;5032502;28;20860;-71
2022/08/15 12:24:32;;;;;;;11.68;6.88;;;26.00;25.40;;;;;;5032329;28;20466;-73
2022/08/15 12:27:01;;;;;;;17.65;7.13;;;26.10;24.50;;;;;;5032233;28;20375;-72
2022/08/15 12:29:28;;;;;;;12.65;6.63;;;26.10;23.90;;;;;;5032097;28;20383;-72
2022/08/15 12:31:54;;;;;;;15.13;6.80;;;26.20;23.70;;;;;;5032063;28;20382;-74
2022/08/15 12:34:32;;;;;;;14.20;6.60;;;26.40;22.70;;;;;;5032336;28;20383;-73
2022/08/15 12:37:00;;;;;;;11.50;6.22;;;26.40;22.30;;;;;;5032084;28;20935;-74
2022/08/15 12:39:27;;;;;;;10.60;5.93;;;26.40;22.40;;;;;;5032054;28;20414;-73
2022/08/15 12:41:54;;;;;;;11.85;6.22;;;26.30;21.60;;;;;;5032019;28;20740;-74
2022/08/15 12:44:23;;;;;;;11.98;6.07;;;26.30;21.90;;;;;;5032096;28;20378;-72
2022/08/15 12:46:50;;;;;;;11.68;6.40;;;26.20;21.50;;;;;;5032879;28;20875;-73
2022/08/15 12:49:16;;;;;;;10.50;6.78;;;26.20;22.20;;;;;;5031788;28;20473;-72
2022/08/15 12:51:42;;;;;;;14.27;6.28;;;26.30;22.20;;;;;;5031851;28;20383;-73
2022/08/15 12:54:08;;;;;;;8.77;5.50;;;26.60;21.60;;;;;;5031839;28;20702;-73
2022/08/15 12:56:33;;;;;;;8.97;6.07;;;26.80;19.90;;;;;;5031661;28;20470;-73
2022/08/15 12:59:01;;;;;;;10.38;5.40;;;27.10;19.50;;;;;;5031767;28;20407;-73
2022/08/15 13:01:27;;;;;;;7.78;5.35;;;27.40;18.10;;;;;;5031701;28;20399;-73
2022/08/15 13:03:53;;;;;;;9.38;5.00;;;27.80;17.00;;;;;;5031565;28;20864;-71
2022/08/15 13:06:29;;;;;;;11.55;5.28;;;28.30;16.60;;;;;;5031678;28;20391;-72
2022/08/15 13:08:55;;;;;;;12.93;5.80;;;28.70;15.30;;;;;;5031589;28;20465;-70
2022/08/15 13:11:21;;;;;;;10.90;5.43;;;28.80;15.10;;;;;;5031252;28;20823;-72
2022/08/15 13:13:47;;;;;;;7.25;5.15;;;28.60;15.20;;;;;;5031369;28;20500;-72
2022/08/15 13:16:13;;;;;;;10.50;5.57;;;28.60;15.50;;;;;;5031341;28;20383;-72
2022/08/15 13:18:39;;;;;;;7.77;5.20;;;28.70;15.20;;;;;;5031613;28;20418;-73